This is the latest recevied weather packets stored in our database for station/object IT9RID. If no packets are shown the sender has not sent any weather packets the latest 10 day(s).
| Time | Temp. | Humidity | Pressure | Rain* | Wind** | Luminosity | Snow |
|---|---|---|---|---|---|---|---|
| 1787773020 | 30.56° C | 51% | 1014.9 hPa | 0 mm | - | - | - |
| 1787771828 | 30.56° C | 55% | 1014.8 hPa | 0 mm | - | - | - |
| 1787771218 | 30.56° C | 57% | 1014.8 hPa | 0 mm | - | - | - |
| 1787770618 | 30.56° C | 57% | 1014.7 hPa | 0 mm | - | - | - |
| 1787770018 | 30.56° C | 60% | 1014.7 hPa | 0 mm | - | - | - |
| 1787769419 | 30.56° C | 61% | 1014.6 hPa | 0 mm | - | - | - |
| 1787768818 | 31.11° C | 65% | 1014.5 hPa | 0 mm | - | - | - |
| 1787768217 | 31.11° C | 68% | 1014.5 hPa | 0 mm | - | - | - |
| 1787767617 | 31.11° C | 69% | 1014.4 hPa | 0 mm | - | - | - |
| 1787767017 | 31.11° C | 70% | 1014.4 hPa | 0 mm | - | - | - |
| 1787766417 | 31.11° C | 70% | 1014.4 hPa | 0 mm | - | - | - |
| 1787765817 | 31.11° C | 70% | 1014.4 hPa | 0 mm | - | - | - |
| 1787765217 | 31.11° C | 69% | 1014.5 hPa | 0 mm | - | - | - |
| 1787764616 | 31.11° C | 69% | 1014.5 hPa | 0 mm | - | - | - |
| 1787764016 | 32.22° C | 68% | 1014.4 hPa | 0 mm | - | - | - |
| 1787763416 | 33.33° C | 60% | 1014.3 hPa | 0 mm | - | - | - |
| 1787762816 | 33.89° C | 52% | 1014.3 hPa | 0 mm | - | - | - |
| 1787762216 | 33.33° C | 52% | 1014.3 hPa | 0 mm | - | - | - |
| 1787761617 | 33.89° C | 50% | 1014.3 hPa | 0 mm | - | - | - |
| 1787761015 | 34.44° C | 43% | 1014.3 hPa | 0 mm | - | - | - |
| 1787760415 | 35° C | 42% | 1014.2 hPa | 0 mm | - | - | - |
| 1787759815 | 34.44° C | 43% | 1014.2 hPa | 0 mm | - | - | - |
| 1787758615 | 35° C | 43% | 1013.9 hPa | 0 mm | - | - | - |
| 1787758015 | 35° C | 42% | 1013.9 hPa | 0 mm | - | - | - |
| 1787757415 | 35° C | 44% | 1013.9 hPa | 0 mm | - | - | - |
* Rain latest hour (hover to see other rain measurements)
** Current wind speed in m/s (hover to see current wind gust speed)